Time;durP1;ratioP1;P1;durP2;ratioP2;P2;SDS_P1;SDS_P2;PMS_P1;PMS_P2;Temp;Humidity;BMP_temperature;BMP_pressure;BME280_temperature;BME280_humidity;BME280_pressure;Samples;Min_cycle;Max_cycle;Signal;HPM_P1;HPM_P2
2021/07/06 00:02:24;;;;;;;5.68;3.58;;;;;;;19.22;100.00;100260.22;4988969;28;20408;-75
2021/07/06 00:04:58;;;;;;;4.13;3.72;;;;;;;19.18;100.00;100256.78;4984314;28;20141;-77
2021/07/06 00:07:24;;;;;;;11.95;3.25;;;;;;;19.14;100.00;100251.41;4972769;28;20038;-75
2021/07/06 00:09:50;;;;;;;4.38;3.47;;;;;;;19.15;100.00;100247.47;4988797;28;20101;-77
2021/07/06 00:12:17;;;;;;;3.45;3.15;;;;;;;19.13;100.00;100244.41;4972109;28;20105;-76
2021/07/06 00:14:43;;;;;;;7.65;3.25;;;;;;;19.11;100.00;100244.06;4988097;28;20054;-76
2021/07/06 00:17:08;;;;;;;9.00;3.40;;;;;;;19.14;100.00;100245.19;4988683;28;20212;-77
2021/07/06 00:19:34;;;;;;;5.75;3.08;;;;;;;19.19;100.00;100242.72;4968929;28;20105;-75
2021/07/06 00:22:00;;;;;;;6.15;3.35;;;;;;;19.19;100.00;100231.78;4970889;28;20039;-76
2021/07/06 00:24:25;;;;;;;10.57;3.40;;;;;;;19.19;100.00;100229.06;4971657;28;20034;-77
2021/07/06 00:26:51;;;;;;;16.70;3.85;;;;;;;19.21;100.00;100228.63;4972443;28;20122;-77
2021/07/06 00:29:17;;;;;;;4.20;3.15;;;;;;;19.26;100.00;100230.88;4967019;28;20410;-76
2021/07/06 00:31:42;;;;;;;6.13;2.95;;;;;;;19.24;100.00;100216.88;4971173;28;20184;-77
2021/07/06 00:34:08;;;;;;;5.00;3.10;;;;;;;19.21;100.00;100225.91;4974330;28;20026;-77
2021/07/06 00:36:33;;;;;;;3.42;3.10;;;;;;;19.12;100.00;100226.50;4971844;28;20496;-77
2021/07/06 00:38:59;;;;;;;7.20;3.40;;;;;;;19.14;100.00;100229.56;4967245;28;20560;-77
2021/07/06 00:41:27;;;;;;;11.23;2.97;;;;;;;19.17;100.00;100234.16;4976433;28;20444;-77
2021/07/06 00:43:52;;;;;;;15.18;3.42;;;;;;;19.17;100.00;100230.66;4971960;28;20046;-76
2021/07/06 00:46:18;;;;;;;8.35;3.30;;;;;;;19.23;100.00;100216.09;4970334;28;20043;-77
2021/07/06 00:48:43;;;;;;;6.82;3.40;;;;;;;19.21;100.00;100218.47;4971444;28;20049;-77
2021/07/06 00:51:09;;;;;;;5.93;2.75;;;;;;;19.18;100.00;100213.84;4972695;28;20497;-77
2021/07/06 00:53:34;;;;;;;7.15;3.20;;;;;;;19.20;100.00;100219.66;4987226;28;20042;-77
2021/07/06 00:56:00;;;;;;;3.85;3.22;;;;;;;19.22;100.00;100219.25;4966016;28;20038;-77
2021/07/06 00:58:27;;;;;;;3.25;3.03;;;;;;;19.12;100.00;100210.09;4983325;28;20030;-76
2021/07/06 01:00:54;;;;;;;7.03;2.92;;;;;;;19.10;100.00;100215.22;4970547;28;20481;-76
2021/07/06 01:03:20;;;;;;;14.02;3.20;;;;;;;19.09;100.00;100219.13;4971294;28;20476;-77
2021/07/06 01:05:46;;;;;;;6.25;2.97;;;;;;;19.13;100.00;100213.59;4967221;28;20038;-76
2021/07/06 01:08:12;;;;;;;14.60;3.15;;;;;;;19.16;100.00;100205.34;4979929;28;20030;-77
2021/07/06 01:10:37;;;;;;;6.72;3.60;;;;;;;19.19;100.00;100214.63;4971680;28;20112;-77
2021/07/06 01:13:05;;;;;;;3.38;2.70;;;;;;;19.21;100.00;100215.75;4983649;28;20061;-77
2021/07/06 01:15:32;;;;;;;6.18;3.00;;;;;;;19.12;100.00;100204.66;4982689;28;20035;-77
2021/07/06 01:18:01;;;;;;;6.75;3.45;;;;;;;19.15;100.00;100194.81;4972809;28;20046;-75
2021/07/06 01:20:28;;;;;;;5.45;3.00;;;;;;;19.17;100.00;100184.25;4972438;28;20552;-75
2021/07/06 01:22:54;;;;;;;3.83;2.80;;;;;;;19.17;100.00;100195.94;4967568;28;20049;-75
2021/07/06 01:25:20;;;;;;;8.63;3.03;;;;;;;19.16;100.00;100193.66;4981196;28;20020;-75
2021/07/06 01:27:45;;;;;;;4.40;3.20;;;;;;;19.12;100.00;100193.72;4972043;28;20036;-75
2021/07/06 01:30:14;;;;;;;5.45;3.10;;;;;;;19.12;100.00;100174.63;4967177;28;20043;-75
2021/07/06 01:32:41;;;;;;;3.50;2.80;;;;;;;19.18;100.00;100180.34;4966226;28;20435;-75
2021/07/06 01:35:12;;;;;;;7.13;2.95;;;;;;;19.14;100.00;100180.41;4968768;28;20031;-75
2021/07/06 01:37:45;;;;;;;11.65;3.45;;;;;;;19.14;100.00;100180.41;4971867;28;20035;-76
2021/07/06 01:40:12;;;;;;;4.63;2.97;;;;;;;19.13;100.00;100173.41;4972023;28;20547;-75
2021/07/06 01:42:38;;;;;;;5.03;2.83;;;;;;;19.15;100.00;100168.28;4984503;28;20027;-76
2021/07/06 01:45:10;;;;;;;7.90;3.28;;;;;;;19.13;100.00;100162.50;4985316;28;20042;-76
2021/07/06 01:47:40;;;;;;;15.00;3.03;;;;;;;19.16;100.00;100156.19;4968843;28;20039;-75
2021/07/06 01:50:08;;;;;;;3.38;3.08;;;;;;;19.18;100.00;100151.06;4971710;28;20405;-77
2021/07/06 01:52:33;;;;;;;4.97;3.08;;;;;;;19.18;100.00;100147.56;4985897;28;20400;-77
2021/07/06 01:54:59;;;;;;;14.23;2.92;;;;;;;19.12;100.00;100149.28;4980081;28;20046;-77
2021/07/06 01:57:25;;;;;;;6.38;3.00;;;;;;;19.13;100.00;100159.75;4967358;28;20701;-77
2021/07/06 01:59:51;;;;;;;7.68;3.50;;;;;;;19.11;100.00;100164.09;4970166;28;20121;-76
2021/07/06 02:02:17;;;;;;;7.53;3.30;;;;;;;19.14;100.00;100157.81;4971513;28;20122;-74
2021/07/06 02:04:43;;;;;;;8.52;2.70;;;;;;;19.14;100.00;100157.81;4984341;28;20129;-75
2021/07/06 02:07:08;;;;;;;7.63;3.20;;;;;;;19.10;100.00;100151.66;4968195;28;20127;-75
2021/07/06 02:09:33;;;;;;;6.13;3.50;;;;;;;19.11;100.00;100142.25;4968603;28;20037;-76
2021/07/06 02:11:59;;;;;;;4.65;3.03;;;;;;;19.10;100.00;100136.03;4971270;28;20394;-75
2021/07/06 02:14:24;;;;;;;9.02;3.35;;;;;;;19.10;100.00;100138.78;4968983;28;20409;-75
2021/07/06 02:16:50;;;;;;;5.70;3.33;;;;;;;19.23;100.00;100134.19;4985930;28;20839;-75
2021/07/06 02:19:16;;;;;;;7.80;3.28;;;;;;;19.18;100.00;100131.19;4971542;28;20030;-75
2021/07/06 02:21:41;;;;;;;7.05;3.10;;;;;;;19.10;100.00;100133.31;4971013;28;20106;-76
2021/07/06 02:24:07;;;;;;;4.05;3.28;;;;;;;19.18;100.00;100128.47;4969439;28;20118;-75
2021/07/06 02:26:33;;;;;;;7.50;3.45;;;;;;;19.11;100.00;100134.06;4971164;28;20027;-75
2021/07/06 02:28:58;;;;;;;10.30;3.25;;;;;;;19.15;100.00;100132.03;4971514;28;20081;-75
2021/07/06 02:31:23;;;;;;;5.40;2.75;;;;;;;19.14;100.00;100130.50;4969515;28;20049;-77
2021/07/06 02:33:49;;;;;;;8.30;3.35;;;;;;;19.13;100.00;100135.19;4969216;28;20050;-75
2021/07/06 02:36:14;;;;;;;4.03;3.55;;;;;;;19.13;100.00;100131.69;4968361;28;20046;-75
2021/07/06 02:38:40;;;;;;;8.55;3.33;;;;;;;19.11;100.00;100121.19;4970791;28;20038;-76
2021/07/06 02:41:06;;;;;;;9.77;3.72;;;;;;;19.16;100.00;100117.97;4970117;28;20062;-77
2021/07/06 02:43:32;;;;;;;7.40;3.58;;;;;;;19.13;100.00;100115.28;4966526;28;20464;-77
2021/07/06 02:45:57;;;;;;;5.32;3.03;;;;;;;19.13;100.00;100116.06;4983411;28;20043;-77
2021/07/06 02:48:23;;;;;;;6.07;3.40;;;;;;;19.14;100.00;100114.91;4969621;28;20429;-76
2021/07/06 02:50:48;;;;;;;16.83;3.35;;;;;;;19.09;100.00;100111.88;4966653;28;20093;-76
2021/07/06 02:53:14;;;;;;;7.38;3.03;;;;;;;19.14;100.00;100114.91;4970736;28;20046;-75
2021/07/06 02:55:40;;;;;;;10.02;3.00;;;;;;;19.17;100.00;100116.75;4969558;28;20027;-75
2021/07/06 02:58:06;;;;;;;7.57;3.50;;;;;;;19.19;100.00;100108.91;4970297;28;20121;-76
2021/07/06 03:00:33;;;;;;;12.65;3.30;;;;;;;19.19;100.00;100106.19;4964820;28;20106;-76
2021/07/06 03:03:02;;;;;;;10.38;4.18;;;;;;;19.22;100.00;100102.59;4971006;28;20042;-75
2021/07/06 03:05:29;;;;;;;8.77;2.97;;;;;;;19.29;100.00;100096.19;4968512;28;20035;-76
2021/07/06 03:07:56;;;;;;;5.60;3.50;;;;;;;19.28;100.00;100095.41;4968509;28;20069;-76
2021/07/06 03:10:43;;;;;;;8.32;3.20;;;;;;;19.26;100.00;100100.53;4969803;28;20070;-76
2021/07/06 03:13:09;;;;;;;5.20;3.00;;;;;;;19.23;100.00;100100.63;4959665;28;20085;-76
2021/07/06 03:15:34;;;;;;;3.90;3.30;;;;;;;19.19;100.00;100106.19;4970674;28;20070;-76
2021/07/06 03:18:02;;;;;;;5.57;3.67;;;;;;;19.22;100.00;100093.66;4967272;28;20039;-76
2021/07/06 03:20:27;;;;;;;7.55;3.45;;;;;;;19.27;100.00;100099.38;4968346;28;20092;-75
2021/07/06 03:22:54;;;;;;;5.97;3.15;;;;;;;19.26;100.00;100105.25;4967193;28;20125;-75
2021/07/06 03:25:22;;;;;;;6.78;3.60;;;;;;;19.23;100.00;100093.22;4985461;28;20544;-75
2021/07/06 03:27:48;;;;;;;13.00;3.33;;;;;;;19.26;100.00;100106.00;4974784;28;20047;-75
2021/07/06 03:30:17;;;;;;;6.05;3.13;;;;;;;19.25;100.00;100103.72;4972328;28;20039;-75
2021/07/06 03:32:43;;;;;;;6.05;3.10;;;;;;;19.17;100.00;100092.19;4970502;28;20157;-75
2021/07/06 03:35:09;;;;;;;8.27;3.35;;;;;;;19.25;100.00;100101.75;4985787;28;20114;-75
2021/07/06 03:37:35;;;;;;;10.98;3.25;;;;;;;19.20;100.00;100096.78;4972302;28;20040;-75
2021/07/06 03:40:02;;;;;;;6.43;2.90;;;;;;;19.23;100.00;100082.28;4972914;28;20050;-76
2021/07/06 03:42:27;;;;;;;11.48;3.58;;;;;;;19.26;100.00;100084.16;4971140;28;20497;-75
2021/07/06 03:44:53;;;;;;;4.15;2.78;;;;;;;19.14;100.00;100082.13;4987793;28;20030;-75
2021/07/06 03:47:18;;;;;;;4.07;3.13;;;;;;;19.22;100.00;100066.34;4972624;28;20038;-74
2021/07/06 03:49:44;;;;;;;10.20;3.10;;;;;;;19.27;100.00;100068.53;4971217;28;20181;-75
2021/07/06 03:52:09;;;;;;;9.02;2.92;;;;;;;19.25;100.00;100066.25;4988970;28;20033;-74
2021/07/06 03:54:35;;;;;;;6.57;3.10;;;;;;;19.20;100.00;100058.56;4972803;28;20118;-75
2021/07/06 03:57:00;;;;;;;4.18;3.00;;;;;;;19.20;100.00;100063.28;4971284;28;20500;-75
2021/07/06 03:59:27;;;;;;;9.38;3.15;;;;;;;19.20;100.00;100066.00;4972618;28;20089;-75
2021/07/06 04:01:53;;;;;;;7.53;3.10;;;;;;;19.17;100.00;100070.34;4954733;28;22549;-75
2021/07/06 04:04:19;;;;;;;6.47;2.75;;;;;;;19.15;100.00;100072.72;4970038;28;20031;-76
2021/07/06 04:06:44;;;;;;;9.40;3.38;;;;;;;19.13;100.00;100079.81;4987303;28;20086;-76
2021/07/06 04:09:10;;;;;;;3.92;3.05;;;;;;;19.04;100.00;100085.88;4972234;28;20421;-76
2021/07/06 04:11:36;;;;;;;7.40;3.03;;;;;;;19.10;100.00;100089.63;4969679;28;20034;-76
2021/07/06 04:14:01;;;;;;;3.67;3.30;;;;;;;19.08;100.00;100089.28;4970200;28;20034;-76
2021/07/06 04:16:27;;;;;;;5.25;3.05;;;;;;;19.12;100.00;100079.06;4975894;28;20088;-78
2021/07/06 04:18:52;;;;;;;6.85;3.10;;;;;;;19.17;100.00;100080.50;4972358;28;20042;-77
2021/07/06 04:21:17;;;;;;;6.55;3.20;;;;;;;19.20;100.00;100076.94;4984367;28;20034;-78
2021/07/06 04:23:43;;;;;;;5.50;3.15;;;;;;;19.26;100.00;100078.69;4974823;28;20042;-77
2021/07/06 04:26:09;;;;;;;3.17;2.90;;;;;;;19.30;100.00;100071.19;4971381;28;20409;-76
2021/07/06 04:28:35;;;;;;;5.97;3.17;;;;;;;19.36;100.00;100066.78;4966924;28;20045;-75
2021/07/06 04:31:01;;;;;;;4.28;3.33;;;;;;;19.39;100.00;100065.94;4971155;28;20031;-75
2021/07/06 04:33:27;;;;;;;5.93;3.00;;;;;;;19.43;100.00;100063.88;4972989;28;20409;-76
2021/07/06 04:35:52;;;;;;;3.20;2.90;;;;;;;19.43;100.00;100071.31;4972492;28;20046;-77
2021/07/06 04:38:18;;;;;;;10.98;3.25;;;;;;;19.47;100.00;100055.59;4986385;28;20039;-77
2021/07/06 04:40:44;;;;;;;5.47;2.83;;;;;;;19.49;100.00;100064.88;4987715;28;20038;-76
2021/07/06 04:43:10;;;;;;;4.07;3.30;;;;;;;19.57;100.00;100062.72;4982811;28;20042;-76
2021/07/06 04:45:37;;;;;;;5.50;2.80;;;;;;;19.63;100.00;100053.59;4986317;28;20478;-76
2021/07/06 04:48:03;;;;;;;4.93;3.28;;;;;;;19.70;100.00;100067.06;4971400;28;20038;-76
2021/07/06 04:50:30;;;;;;;4.15;3.28;;;;;;;19.69;100.00;100053.81;4986273;28;20046;-76
2021/07/06 04:52:56;;;;;;;4.43;3.20;;;;;;;19.65;100.00;100051.19;4986857;28;20108;-76
2021/07/06 04:55:22;;;;;;;4.65;3.08;;;;;;;19.75;100.00;100043.91;4968976;28;20030;-76
2021/07/06 04:57:47;;;;;;;3.30;3.00;;;;;;;19.59;100.00;100041.97;4971033;28;20026;-76
2021/07/06 05:00:16;;;;;;;3.70;3.35;;;;;;;19.63;100.00;100039.16;4971004;28;20050;-76
2021/07/06 05:02:42;;;;;;;5.18;3.60;;;;;;;19.70;100.00;100028.03;4985685;28;20039;-76
2021/07/06 05:05:09;;;;;;;3.38;2.80;;;;;;;19.77;100.00;100028.63;4984684;28;20033;-76
2021/07/06 05:07:35;;;;;;;3.97;3.40;;;;;;;19.86;100.00;100032.69;4972336;28;20095;-75
2021/07/06 05:10:02;;;;;;;508.98;101.18;;;;;;;19.94;100.00;100031.31;4970244;28;20030;-77
2021/07/06 05:12:28;;;;;;;5.57;3.15;;;;;;;19.91;100.00;100032.94;4971381;28;20027;-76
2021/07/06 05:14:53;;;;;;;6.43;3.03;;;;;;;19.79;100.00;100026.22;4968737;28;20026;-77
2021/07/06 05:17:18;;;;;;;4.53;2.85;;;;;;;20.14;100.00;100034.63;4986044;28;20084;-75
2021/07/06 05:19:44;;;;;;;3.10;2.80;;;;;;;20.87;100.00;100037.09;4969837;28;20062;-74
2021/07/06 05:22:09;;;;;;;5.53;2.70;;;;;;;22.09;96.03;100034.13;4969820;28;20121;-74
2021/07/06 05:24:35;;;;;;;3.38;2.88;;;;;;;22.93;90.13;100035.59;4981911;28;20114;-77
2021/07/06 05:27:00;;;;;;;3.60;2.10;;;;;;;23.88;86.21;100047.31;4967024;28;20031;-74
2021/07/06 05:29:26;;;;;;;6.05;1.98;;;;;;;24.35;83.34;100046.81;4975081;28;20030;-76
2021/07/06 05:31:51;;;;;;;3.13;1.90;;;;;;;24.62;81.03;100057.72;4971387;28;20050;-76
2021/07/06 05:34:17;;;;;;;2.90;2.08;;;;;;;24.64;80.89;100071.81;4966487;28;20110;-76
2021/07/06 05:36:43;;;;;;;6.82;2.10;;;;;;;23.78;82.82;100082.31;4972683;28;20070;-77
2021/07/06 05:39:09;;;;;;;3.50;2.10;;;;;;;23.09;85.98;100090.28;4973134;28;20069;-76
2021/07/06 05:41:34;;;;;;;2.55;2.08;;;;;;;22.37;89.05;100076.22;4971162;28;20034;-77
2021/07/06 05:44:00;;;;;;;6.80;2.42;;;;;;;22.02;92.38;100088.47;4971284;28;20049;-77
2021/07/06 05:46:30;;;;;;;5.85;2.25;;;;;;;21.46;95.69;100085.69;4973400;28;20034;-77
2021/07/06 05:48:56;;;;;;;2.42;2.22;;;;;;;21.17;97.43;100080.38;4966422;28;20047;-77
2021/07/06 05:51:22;;;;;;;2.65;2.45;;;;;;;21.04;98.84;100096.03;4987369;28;20482;-77
2021/07/06 05:53:49;;;;;;;2.92;2.25;;;;;;;20.82;100.00;100091.63;4973824;28;20073;-75
2021/07/06 05:56:16;;;;;;;3.80;2.47;;;;;;;20.77;100.00;100079.25;4947234;28;20026;-77
2021/07/06 05:58:41;;;;;;;4.60;3.03;;;;;;;20.78;100.00;100089.00;4987677;28;20103;-76
2021/07/06 06:01:07;;;;;;;5.80;2.85;;;;;;;20.74;100.00;100068.41;4968260;28;20042;-77
2021/07/06 06:03:32;;;;;;;6.35;2.80;;;;;;;20.75;100.00;100072.72;4972996;28;20030;-77
2021/07/06 06:05:58;;;;;;;5.32;2.47;;;;;;;20.56;100.00;100077.94;4967791;28;20066;-76
2021/07/06 06:08:23;;;;;;;4.28;2.47;;;;;;;20.56;100.00;100077.16;4984702;28;21257;-77
2021/07/06 06:10:49;;;;;;;4.82;2.55;;;;;;;20.70;100.00;100052.13;4968638;28;20473;-75
2021/07/06 06:13:14;;;;;;;4.30;2.78;;;;;;;20.74;100.00;100055.50;4972573;28;20490;-76
2021/07/06 06:15:40;;;;;;;4.10;2.60;;;;;;;20.88;100.00;100041.38;4972118;28;20027;-77
2021/07/06 06:18:05;;;;;;;3.42;2.53;;;;;;;20.95;100.00;100041.16;4986987;28;20410;-77
2021/07/06 06:20:31;;;;;;;7.30;2.40;;;;;;;21.07;100.00;100025.94;4963124;28;20027;-77
2021/07/06 06:22:56;;;;;;;3.00;2.67;;;;;;;21.29;100.00;100032.25;4973206;28;20039;-77
2021/07/06 06:25:22;;;;;;;3.20;2.50;;;;;;;21.73;99.87;100033.06;4984491;28;20071;-77
2021/07/06 06:27:48;;;;;;;4.15;2.28;;;;;;;22.25;96.17;100035.88;4967026;28;20118;-77
2021/07/06 06:30:14;;;;;;;2.35;1.90;;;;;;;22.68;93.53;100038.56;4965709;28;20031;-76
2021/07/06 06:32:40;;;;;;;6.78;1.85;;;;;;;23.04;91.32;100046.91;4984298;28;20036;-76
2021/07/06 06:35:06;;;;;;;2.63;2.08;;;;;;;23.10;90.39;100050.59;4944660;28;20037;-76
2021/07/06 06:37:32;;;;;;;3.53;1.98;;;;;;;23.17;91.27;100049.56;4985584;28;20027;-77
2021/07/06 06:39:57;;;;;;;2.85;1.80;;;;;;;23.50;88.55;100038.78;4972270;28;20035;-75
2021/07/06 06:42:23;;;;;;;3.25;1.58;;;;;;;23.59;87.76;100033.28;4973203;28;20509;-77
2021/07/06 06:44:48;;;;;;;1.70;1.60;;;;;;;23.69;87.42;100037.56;4973568;28;20043;-75
2021/07/06 06:47:15;;;;;;;2.78;1.90;;;;;;;23.78;86.46;100024.56;4969040;28;20027;-75
2021/07/06 06:49:40;;;;;;;2.83;1.52;;;;;;;23.79;86.75;100031.56;4971574;28;20106;-76
2021/07/06 06:52:06;;;;;;;4.72;1.63;;;;;;;23.75;89.15;100021.97;4969418;28;20569;-75
2021/07/06 06:54:33;;;;;;;3.28;1.85;;;;;;;23.47;86.89;100023.19;4972957;28;20113;-77
2021/07/06 06:57:00;;;;;;;1.80;1.40;;;;;;;23.39;88.21;100019.19;4987555;28;20070;-76
2021/07/06 06:59:25;;;;;;;2.80;1.70;;;;;;;23.21;88.92;100028.94;4973767;28;20474;-77
2021/07/06 07:02:16;;;;;;;3.30;1.63;;;;;;;23.09;88.24;100024.31;4986462;28;20046;-77
2021/07/06 07:04:36;;;;;;;1.42;1.33;;;;;;;23.05;90.15;100015.47;4988648;28;20129;-76
2021/07/06 07:07:02;;;;;;;2.75;1.50;;;;;;;23.04;89.76;100016.69;4974087;28;20117;-74
2021/07/06 07:09:27;;;;;;;3.75;1.25;;;;;;;23.05;90.34;100017.47;4990159;28;20027;-77
2021/07/06 07:11:53;;;;;;;2.10;1.40;;;;;;;23.05;90.16;100009.97;4974416;28;20059;-76
2021/07/06 07:14:18;;;;;;;1.85;1.60;;;;;;;22.90;91.24;100019.25;4987184;28;20063;-77
2021/07/06 07:16:46;;;;;;;2.45;1.40;;;;;;;22.92;90.74;100023.06;4975262;28;20038;-77
2021/07/06 07:19:11;;;;;;;6.70;1.92;;;;;;;22.81;91.64;100028.22;4987505;28;20045;-76
2021/07/06 07:21:37;;;;;;;4.32;1.90;;;;;;;22.82;92.21;100027.00;4973402;28;20027;-77
2021/07/06 07:24:02;;;;;;;3.92;1.40;;;;;;;22.88;91.49;100027.94;4973935;28;20030;-77
2021/07/06 07:26:28;;;;;;;3.10;1.40;;;;;;;22.89;91.46;100040.47;4964712;28;20118;-77
2021/07/06 07:28:53;;;;;;;3.08;1.48;;;;;;;22.86;92.03;100044.09;4973064;28;20026;-76
2021/07/06 07:31:19;;;;;;;2.30;1.40;;;;;;;22.99;91.58;100042.03;4984793;28;20049;-77
2021/07/06 07:33:44;;;;;;;1.52;1.33;;;;;;;23.05;90.12;100048.44;4969188;28;20042;-77
2021/07/06 07:36:10;;;;;;;1.67;1.20;;;;;;;22.97;90.67;100047.22;4974912;28;20173;-75
2021/07/06 07:38:35;;;;;;;3.60;1.25;;;;;;;23.10;90.06;100045.09;4977850;28;20042;-77
2021/07/06 07:41:00;;;;;;;2.25;1.35;;;;;;;23.07;89.96;100042.50;4973313;28;20489;-75
2021/07/06 07:43:26;;;;;;;1.92;1.20;;;;;;;23.16;89.69;100037.00;4957928;28;20460;-75
2021/07/06 07:45:52;;;;;;;1.75;1.58;;;;;;;23.35;89.70;100032.31;4988827;28;20504;-75
2021/07/06 07:48:17;;;;;;;2.35;1.10;;;;;;;23.41;89.12;100030.50;4971552;28;20066;-77
2021/07/06 07:50:42;;;;;;;1.00;1.00;;;;;;;23.48;88.87;100028.22;4973477;28;20413;-74
2021/07/06 07:53:08;;;;;;;1.40;1.30;;;;;;;23.60;87.73;100032.03;4975324;28;20401;-77
2021/07/06 07:55:33;;;;;;;2.50;1.10;;;;;;;23.51;86.79;100030.06;4968926;28;20113;-77
2021/07/06 07:57:59;;;;;;;1.42;1.20;;;;;;;23.76;87.52;100035.25;4972198;28;20457;-76
2021/07/06 08:00:24;;;;;;;2.17;1.08;;;;;;;23.96;87.60;100034.78;4980885;23;20044;-75
2021/07/06 08:02:50;;;;;;;5.03;1.13;;;;;;;24.19;85.10;100017.63;4949886;28;20433;-75
2021/07/06 08:05:15;;;;;;;3.10;1.33;;;;;;;24.33;83.98;100016.22;4952402;28;20047;-75
2021/07/06 08:07:41;;;;;;;1.92;1.23;;;;;;;24.56;84.02;100010.78;4936437;28;20023;-75
2021/07/06 08:10:07;;;;;;;4.25;1.10;;;;;;;24.61;82.98;100014.88;4945259;28;20399;-75
2021/07/06 08:12:33;;;;;;;4.03;1.40;;;;;;;24.83;83.66;99998.88;4948735;28;20108;-75
2021/07/06 08:14:59;;;;;;;2.72;0.95;;;;;;;25.15;81.93;99997.28;4955223;28;20481;-75
2021/07/06 08:17:24;;;;;;;2.10;1.00;;;;;;;25.38;78.95;100005.53;4948851;28;20027;-76
2021/07/06 08:19:52;;;;;;;1.23;1.10;;;;;;;25.44;78.94;100009.19;4947883;28;20038;-75
2021/07/06 08:22:17;;;;;;;1.58;1.00;;;;;;;25.67;78.63;99999.34;4932346;28;20044;-75
2021/07/06 08:24:44;;;;;;;1.20;0.90;;;;;;;25.76;78.37;100004.81;4937456;28;20031;-75
2021/07/06 08:27:09;;;;;;;6.47;1.10;;;;;;;25.99;79.66;99998.44;4954337;28;20474;-75
2021/07/06 08:29:35;;;;;;;1.33;0.90;;;;;;;26.03;74.23;99996.25;4949582;28;20040;-75
2021/07/06 08:32:01;;;;;;;1.55;1.25;;;;;;;26.09;75.43;100010.16;4946768;28;20493;-75
2021/07/06 08:34:26;;;;;;;4.68;1.95;;;;;;;26.19;74.89;99998.53;4933101;28;20035;-75
2021/07/06 08:36:52;;;;;;;2.78;0.95;;;;;;;26.35;76.30;100002.81;4929675;29;20994;-75
2021/07/06 08:39:17;;;;;;;3.67;1.08;;;;;;;26.39;74.70;99998.63;4949630;28;20035;-75
2021/07/06 08:41:43;;;;;;;3.53;0.93;;;;;;;26.63;73.95;99996.47;4934013;29;20126;-76
2021/07/06 08:44:09;;;;;;;1.15;0.90;;;;;;;26.80;74.57;99999.50;4941871;28;20031;-76
2021/07/06 08:46:38;;;;;;;1.20;1.10;;;;;;;27.03;73.78;100003.31;4941486;28;20035;-76
2021/07/06 08:49:05;;;;;;;7.10;1.13;;;;;;;27.09;73.79;100001.38;4953029;28;20608;-75
2021/07/06 08:51:30;;;;;;;0.90;0.90;;;;;;;27.23;72.07;99995.78;4934964;29;20548;-75
2021/07/06 08:53:56;;;;;;;2.45;1.05;;;;;;;27.26;71.31;99986.50;4915843;28;20042;-75
2021/07/06 08:56:22;;;;;;;3.30;1.02;;;;;;;27.07;71.78;99992.81;4919232;29;20502;-76
2021/07/06 08:58:48;;;;;;;2.92;1.20;;;;;;;27.28;71.69;99997.84;4952550;28;20067;-76
2021/07/06 09:01:14;;;;;;;1.88;1.25;;;;;;;27.08;71.85;99997.13;4950210;28;20049;-76
2021/07/06 09:03:55;;;;;;;1.52;1.10;;;;;;;27.31;72.27;100007.19;4948348;28;20121;-75
2021/07/06 09:06:22;;;;;;;1.10;1.00;;;;;;;27.48;71.77;100011.72;4944068;28;20705;-76
2021/07/06 09:08:52;;;;;;;1.10;1.00;;;;;;;27.79;72.14;100019.34;4947364;28;20027;-75
2021/07/06 09:11:21;;;;;;;3.15;1.20;;;;;;;27.82;69.04;100021.13;4947456;28;20166;-75
2021/07/06 09:13:47;;;;;;;4.25;1.02;;;;;;;28.03;69.80;100017.06;4948939;28;20146;-76
2021/07/06 09:16:20;;;;;;;2.47;1.40;;;;;;;27.59;66.96;100022.91;4948664;28;20137;-76
2021/07/06 09:18:47;;;;;;;2.30;1.05;;;;;;;27.37;68.77;100024.66;4944165;28;20043;-75
2021/07/06 09:21:13;;;;;;;7.88;1.40;;;;;;;27.26;67.96;100030.00;4943945;29;20046;-76
2021/07/06 09:23:49;;;;;;;1.50;1.20;;;;;;;27.20;68.81;100043.00;4931278;28;20517;-75
2021/07/06 09:26:17;;;;;;;1.10;0.98;;;;;;;27.10;68.56;100038.88;4948979;28;20117;-75
2021/07/06 09:28:51;;;;;;;3.42;1.00;;;;;;;27.39;67.62;100027.69;4928913;29;20039;-76
2021/07/06 09:31:43;;;;;;;3.05;1.10;;;;;;;27.37;68.62;100028.16;4949306;28;20054;-75
2021/07/06 09:34:11;;;;;;;2.38;1.20;;;;;;;27.21;68.95;100042.53;4938464;28;20094;-76
2021/07/06 09:36:46;;;;;;;2.67;1.27;;;;;;;27.34;68.40;100026.38;4947591;28;20042;-76
2021/07/06 09:39:13;;;;;;;2.92;1.10;;;;;;;27.52;68.87;100014.25;4950525;28;20043;-76
2021/07/06 09:41:52;;;;;;;3.95;1.20;;;;;;;27.59;67.62;100022.91;4950359;28;20042;-76
2021/07/06 09:44:24;;;;;;;3.67;1.20;;;;;;;27.56;67.31;100023.84;4948395;28;20046;-75
2021/07/06 09:47:04;;;;;;;3.13;1.30;;;;;;;27.67;66.80;100017.69;4938848;29;20131;-76
2021/07/06 09:49:38;;;;;;;3.72;1.13;;;;;;;27.96;65.15;100019.50;4939058;28;20038;-76
2021/07/06 09:52:18;;;;;;;1.42;1.10;;;;;;;28.34;63.96;100011.53;4937814;28;20099;-76
2021/07/06 09:54:49;;;;;;;2.00;0.98;;;;;;;28.47;64.96;100011.16;4954603;28;20114;-76
2021/07/06 09:57:26;;;;;;;3.55;1.00;;;;;;;28.18;64.08;100014.19;4950123;28;20400;-76
2021/07/06 10:00:14;;;;;;;1.17;1.05;;;;;;;28.01;65.76;100014.03;4946960;28;20031;-75
2021/07/06 10:02:42;;;;;;;1.00;0.90;;;;;;;28.01;65.53;100016.06;4933762;28;20042;-76
2021/07/06 10:05:16;;;;;;;1.63;0.90;;;;;;;27.93;65.14;100012.16;4943157;28;20068;-75
2021/07/06 10:07:42;;;;;;;1.40;1.10;;;;;;;28.10;65.31;100018.66;4929720;28;20047;-76
2021/07/06 10:10:13;;;;;;;2.63;1.10;;;;;;;28.12;66.22;100011.38;4935258;29;20031;-76
2021/07/06 10:12:44;;;;;;;2.90;1.20;;;;;;;28.11;66.57;100018.16;4930500;29;20405;-76
2021/07/06 10:15:11;;;;;;;;;;;;;;;27.93;66.68;100015.72;4945945;28;20032;-76
2021/07/06 10:17:39;;;;;;;1.77;1.13;;;;;;;28.09;66.64;100022.66;4945004;28;19997;-77
2021/07/06 10:20:08;;;;;;;2.28;1.00;;;;;;;27.95;66.66;100032.59;4932609;29;20043;-76
2021/07/06 10:22:34;;;;;;;1.75;1.30;;;;;;;27.73;65.13;100023.28;4922251;29;20035;-76
2021/07/06 10:25:03;;;;;;;6.72;1.30;;;;;;;27.83;68.56;100021.88;4938940;28;20508;-77
2021/07/06 10:27:32;;;;;;;1.70;1.10;;;;;;;27.41;67.28;100014.88;4910967;29;20023;-76
2021/07/06 10:30:15;;;;;;;2.20;0.90;;;;;;;27.42;66.94;100021.19;4944667;28;20465;-77
2021/07/06 10:32:50;;;;;;;3.35;0.90;;;;;;;27.41;65.70;100030.75;4945493;28;20034;-76
2021/07/06 10:35:17;;;;;;;2.45;0.98;;;;;;;27.34;66.10;100023.63;4946277;28;20050;-76
2021/07/06 10:37:43;;;;;;;2.35;1.17;;;;;;;27.43;65.65;100031.00;4932292;28;20051;-76
2021/07/06 10:40:22;;;;;;;3.35;1.05;;;;;;;27.63;65.51;100028.22;4931152;29;20082;-76
2021/07/06 10:42:51;;;;;;;3.70;1.10;;;;;;;27.39;65.41;100036.00;4937690;28;20498;-76
2021/07/06 10:45:25;;;;;;;1.23;1.00;;;;;;;27.25;65.84;100028.50;4944083;28;20031;-76
2021/07/06 10:47:54;;;;;;;14.68;1.55;;;;;;;27.17;66.10;100049.50;4930431;29;20109;-76
2021/07/06 10:50:31;;;;;;;1.35;1.05;;;;;;;27.23;67.22;100025.47;4946029;28;20036;-76
2021/07/06 10:53:16;;;;;;;2.72;1.00;;;;;;;27.27;66.63;100014.94;4949154;28;20137;-76
2021/07/06 10:55:43;;;;;;;2.65;1.10;;;;;;;27.38;68.47;100028.94;4948987;28;20039;-76
2021/07/06 10:58:10;;;;;;;1.77;1.10;;;;;;;27.36;68.74;100034.19;4936452;28;20035;-76
2021/07/06 11:00:45;;;;;;;1.83;0.95;;;;;;;27.32;68.40;100045.47;4941365;28;20091;-76
2021/07/06 11:03:18;;;;;;;3.03;1.08;;;;;;;27.21;66.71;100047.31;4950189;28;20023;-76
2021/07/06 11:05:44;;;;;;;0.93;0.75;;;;;;;27.21;67.61;100044.53;4932306;29;20035;-76
2021/07/06 11:08:41;;;;;;;3.22;1.25;;;;;;;27.19;68.53;100042.25;4939736;28;20517;-76
2021/07/06 11:11:07;;;;;;;2.78;1.00;;;;;;;27.03;68.63;100045.56;4943875;28;20064;-76
2021/07/06 11:13:32;;;;;;;5.97;1.25;;;;;;;27.02;69.46;100048.81;4943114;28;20193;-76
2021/07/06 11:16:01;;;;;;;1.40;1.02;;;;;;;26.95;70.14;100049.19;4941757;28;20134;-76
2021/07/06 11:18:42;;;;;;;1.10;1.00;;;;;;;27.03;69.10;100048.31;4933743;28;20059;-76
2021/07/06 11:21:26;;;;;;;;;;;;;;;26.65;68.26;100045.75;4934110;28;20489;-76
2021/07/06 11:24:10;;;;;;;3.35;1.10;;;;;;;26.47;67.95;100045.94;4943367;28;20041;-75